Anna Maria, Florida
Current Conditions -  °F | °C
As of 2:53 AM on Friday 24 Oct 2014 (Local Time) from KSRQ Reporting Station
Clear Clear  
Wind Chill: 17°   Ceiling: Unl
Heat Index: 17°   Visibility: 10mi
Dew Point: 14°   Wind: 8mph
Humidity: 84%   Direction: 60°ENE
Pressure: 29.93"   Gusts: NA
Location:  27.53°N, 82.73°W
Report Text: KSRQ 240653Z 06007KT 10SM CLR 17/14 A2993 RMK AO2 SLP135 T01720144
Loading
Personal Weather Stations






























Interactive Weather Map
Tropical Storm Tracking
New forecast layout! Learn more

10-Day Weather Forecast

Advertisements
Track Severe Weather on mobile